LSZA Airport Information

Runway Information
Runway 01 Length 4429 ft width 98 ft
Elevation 896 ft Threshold 361 ft Heading 19
Runway 19 Length 4429 ft Width 98 ft
Elevation 915 ft Threshold 672 ft Heading 199
Airport Frequencies
Type ATIS Name ATIS Frequency 121.175 MHZ
Type GND Name GND Frequency 121.775 MHZ
Type TWR Name TWR Frequency 120.25 MHZ
Airport Navaids
Airport Weather Information & NOTAM
ADDS - METARS form results

(1744 UTC 20 November 2022)
Data provider http://aviationweather.gov/metar/data/
 
METAR text: LSZA 201720Z VRB02KT CAVOK 06/02 Q1010
Conditions at: LSZA (LUGANO (PVT/AUT), CH) observed 1720 UTC 20 November 2022
Temperature: 6.0°C (43°F)
Dewpoint: 2.0°C (36°F) [RH = 75%]
Pressure (altimeter): 29.82 inches Hg (1010.0 mb)
Winds: variable direction winds at 2 MPH (2 knots; 1.0 m/s)
Visibility: 6 or more miles (10+ km)
Ceiling: ceiling and visibility are OK
Clouds: unknown
Weather: no significant weather observed at this time

METAR text: LSZA 201650Z VRB02KT CAVOK 06/01 Q1010
Conditions at: LSZA (LUGANO (PVT/AUT), CH) observed 1650 UTC 20 November 2022
Temperature: 6.0°C (43°F)
Dewpoint: 1.0°C (34°F) [RH = 70%]
Pressure (altimeter): 29.82 inches Hg (1010.0 mb)
Winds: variable direction winds at 2 MPH (2 knots; 1.0 m/s)
Visibility: 6 or more miles (10+ km)
Ceiling: ceiling and visibility are OK
Clouds: unknown
Weather: no significant weather observed at this time

Forecast for: LSZA (LUGANO (PVT/AUT), CH)
Text: TAF LSZA 201425Z 2015/2024 VRB02KT CAVOK
Forecast period: 1500 UTC 20 November 2022 to 0000 UTC 21 November 2022
Forecast type: FROM: standard forecast or significant change
Winds: variable direction winds at 2 MPH (2 knots; 1.0 m/s)
Visibility: 6 or more miles (10+ km)
Ceiling: unknown
Clouds: missing
Weather: NSW  (no significant weather)
Text: TEMPO 2018/2024 9999 SCT090
Forecast period: 1800 UTC 20 November 2022 to 0000 UTC 21 November 2022
Forecast type: TEMPORARY: The following changes expected for less than half the time period
Visibility: 6 or more miles (10+ km)
Ceiling: at least 12,000 feet AGL
Clouds: scattered clouds at 9000 feet AGL
Weather: no significant weather forecast for this period